Time;durP1;ratioP1;P1;durP2;ratioP2;P2;SDS_P1;SDS_P2;PMS_P1;PMS_P2;Temp;Humidity;BMP_temperature;BMP_pressure;BME280_temperature;BME280_humidity;BME280_pressure;Samples;Min_cycle;Max_cycle;Signal;HPM_P1;HPM_P2
2021/09/21 00:02:14;;;;;;;0.50;0.20;;;11.50;73.60;;;;;;4855258;29;20049;-74
2021/09/21 00:04:41;;;;;;;1.50;0.25;;;11.50;73.60;;;;;;4822162;29;20073;-75
2021/09/21 00:07:08;;;;;;;0.65;0.30;;;11.40;73.50;;;;;;4855559;29;20046;-75
2021/09/21 00:09:35;;;;;;;0.73;0.20;;;11.40;73.70;;;;;;4860233;29;20128;-75
2021/09/21 00:12:02;;;;;;;0.55;0.20;;;11.40;73.80;;;;;;4822980;29;20041;-75
2021/09/21 00:14:29;;;;;;;0.63;0.43;;;11.40;73.80;;;;;;4857467;29;20060;-75
2021/09/21 00:16:56;;;;;;;0.77;0.40;;;11.40;73.80;;;;;;4857141;29;20454;-75
2021/09/21 00:19:24;;;;;;;0.47;0.20;;;11.40;73.80;;;;;;4858258;29;20185;-75
2021/09/21 00:21:51;;;;;;;0.60;0.20;;;11.40;73.70;;;;;;4840577;29;20101;-75
2021/09/21 00:24:18;;;;;;;3.85;0.32;;;11.40;73.70;;;;;;4854056;29;20121;-75
2021/09/21 00:26:45;;;;;;;0.60;0.20;;;11.40;73.80;;;;;;4856524;29;20069;-75
2021/09/21 00:29:12;;;;;;;0.60;0.20;;;11.40;74.00;;;;;;4827637;29;20127;-75
2021/09/21 00:31:41;;;;;;;0.50;0.30;;;11.30;74.10;;;;;;4854016;29;20046;-75
2021/09/21 00:34:13;;;;;;;0.68;0.30;;;11.30;74.30;;;;;;4855472;29;20098;-75
2021/09/21 00:36:41;;;;;;;0.75;0.20;;;11.20;74.40;;;;;;4857339;29;20090;-75
2021/09/21 00:39:11;;;;;;;0.30;0.20;;;11.20;74.50;;;;;;4836082;29;20337;-75
2021/09/21 00:41:39;;;;;;;0.60;0.20;;;11.20;74.60;;;;;;4842506;29;20104;-75
2021/09/21 00:44:08;;;;;;;1.10;0.30;;;11.10;74.70;;;;;;4838149;29;20065;-75
2021/09/21 00:46:35;;;;;;;0.52;0.30;;;11.10;74.80;;;;;;4844939;29;20060;-75
2021/09/21 00:49:03;;;;;;;0.57;0.22;;;11.10;74.90;;;;;;4856035;29;20112;-75
2021/09/21 00:51:30;;;;;;;1.17;0.30;;;11.00;75.00;;;;;;4853507;29;20058;-75
2021/09/21 00:53:57;;;;;;;0.75;0.30;;;11.00;75.10;;;;;;4855813;29;20076;-75
2021/09/21 00:56:24;;;;;;;1.70;0.40;;;11.00;75.20;;;;;;4856693;29;20124;-75
2021/09/21 00:58:51;;;;;;;1.23;0.40;;;11.00;75.10;;;;;;4855883;29;20431;-74
2021/09/21 01:01:19;;;;;;;1.80;0.30;;;11.00;75.10;;;;;;4839645;29;20491;-75
2021/09/21 01:03:46;;;;;;;0.80;0.40;;;11.10;75.10;;;;;;4857082;29;20499;-75
2021/09/21 01:06:13;;;;;;;0.82;0.35;;;11.00;75.00;;;;;;4856716;29;20090;-75
2021/09/21 01:08:41;;;;;;;0.98;0.30;;;11.00;75.10;;;;;;4853960;29;20121;-75
2021/09/21 01:11:12;;;;;;;0.65;0.30;;;11.00;75.10;;;;;;4855448;29;20466;-75
2021/09/21 01:13:40;;;;;;;0.85;0.35;;;11.00;75.20;;;;;;4856679;29;20045;-75
2021/09/21 01:16:08;;;;;;;0.93;0.30;;;11.00;75.20;;;;;;4838556;29;20050;-75
2021/09/21 01:18:35;;;;;;;1.48;0.52;;;11.00;75.20;;;;;;4854174;29;20050;-75
2021/09/21 01:21:04;;;;;;;1.08;0.40;;;11.00;75.10;;;;;;4852444;29;20128;-75
2021/09/21 01:23:42;;;;;;;1.63;0.57;;;11.00;75.10;;;;;;4856425;29;20347;-74
2021/09/21 01:26:09;;;;;;;1.15;0.40;;;11.10;75.10;;;;;;4849748;29;20046;-75
2021/09/21 01:28:36;;;;;;;1.00;0.40;;;11.10;75.10;;;;;;4837300;29;20124;-74
2021/09/21 01:31:03;;;;;;;1.95;0.40;;;11.10;75.10;;;;;;4856047;29;20125;-75
2021/09/21 01:33:30;;;;;;;1.23;0.40;;;11.00;75.20;;;;;;4824657;29;20502;-75
2021/09/21 01:35:57;;;;;;;0.88;0.40;;;11.00;75.30;;;;;;4854501;29;20524;-75
2021/09/21 01:38:24;;;;;;;3.38;0.40;;;11.00;75.50;;;;;;4823665;29;20148;-74
2021/09/21 01:40:52;;;;;;;1.65;0.40;;;10.90;75.50;;;;;;4824600;29;20049;-75
2021/09/21 01:43:18;;;;;;;0.85;0.40;;;10.90;75.60;;;;;;4837500;29;20498;-75
2021/09/21 01:45:45;;;;;;;0.88;0.30;;;10.90;75.70;;;;;;4841152;29;20077;-75
2021/09/21 01:48:12;;;;;;;2.33;0.70;;;10.90;75.70;;;;;;4826085;29;20037;-75
2021/09/21 01:58:49;;;;;;;0.80;0.40;;;10.80;76.00;;;;;;4853727;29;20106;-75
2021/09/21 02:01:19;;;;;;;1.55;0.40;;;10.80;76.10;;;;;;4856614;29;20459;-75
2021/09/21 02:03:49;;;;;;;2.33;0.50;;;10.70;76.10;;;;;;4838262;29;20422;-75
2021/09/21 02:06:16;;;;;;;0.77;0.32;;;10.70;76.20;;;;;;4853908;29;20045;-74
2021/09/21 02:08:44;;;;;;;0.85;0.30;;;10.70;76.30;;;;;;4853361;29;20101;-75
2021/09/21 02:11:10;;;;;;;1.25;0.40;;;10.60;76.40;;;;;;4854736;29;20041;-75
2021/09/21 02:13:38;;;;;;;1.60;0.50;;;10.60;77.10;;;;;;4836822;29;20045;-75
2021/09/21 02:16:05;;;;;;;0.55;0.30;;;10.60;76.60;;;;;;4824021;29;20080;-74
2021/09/21 02:18:33;;;;;;;1.10;0.50;;;10.60;76.70;;;;;;4854678;29;20041;-75
2021/09/21 02:21:00;;;;;;;0.93;0.38;;;10.60;76.80;;;;;;4852948;29;21167;-75
2021/09/21 02:23:27;;;;;;;1.10;0.40;;;10.60;76.80;;;;;;4854187;29;20069;-74
2021/09/21 02:25:54;;;;;;;1.02;0.40;;;10.50;76.90;;;;;;4836739;29;20061;-75
2021/09/21 02:28:21;;;;;;;0.80;0.30;;;10.50;77.00;;;;;;4854502;29;20106;-75
2021/09/21 02:30:48;;;;;;;0.88;0.40;;;10.50;77.10;;;;;;4837133;29;20042;-75
2021/09/21 02:33:15;;;;;;;0.82;0.30;;;10.50;77.10;;;;;;4852557;29;20128;-75
2021/09/21 02:35:42;;;;;;;0.47;0.20;;;10.50;77.20;;;;;;4853159;29;20077;-75
2021/09/21 02:38:09;;;;;;;0.88;0.35;;;10.50;77.20;;;;;;4854487;29;20109;-74
2021/09/21 02:40:37;;;;;;;1.17;0.30;;;10.50;77.30;;;;;;4838292;29;20106;-75
2021/09/21 02:43:04;;;;;;;0.90;0.30;;;10.50;77.30;;;;;;4836847;29;20108;-75
2021/09/21 02:45:31;;;;;;;1.27;0.40;;;10.50;77.40;;;;;;4842021;29;20073;-74
2021/09/21 02:47:58;;;;;;;1.02;0.32;;;10.50;77.40;;;;;;4852869;29;20905;-75
2021/09/21 02:50:25;;;;;;;1.10;0.43;;;10.50;77.40;;;;;;4840513;29;20065;-75
2021/09/21 02:52:52;;;;;;;0.80;0.35;;;10.50;77.50;;;;;;4852313;29;20054;-75
2021/09/21 02:55:20;;;;;;;1.40;0.40;;;10.50;77.50;;;;;;4836446;29;20050;-75
2021/09/21 02:57:47;;;;;;;1.55;0.40;;;10.50;77.60;;;;;;4851269;29;20041;-75
2021/09/21 03:00:19;;;;;;;2.00;0.30;;;10.40;77.70;;;;;;4836887;29;20111;-74
2021/09/21 03:02:47;;;;;;;1.00;0.40;;;10.40;77.80;;;;;;4856183;29;20050;-76
2021/09/21 03:05:24;;;;;;;0.70;0.30;;;10.40;77.90;;;;;;4840307;29;20044;-75
2021/09/21 03:18:05;;;;;;;0.90;0.35;;;10.20;78.40;;;;;;4855295;29;21131;-75
2021/09/21 03:20:32;;;;;;;1.25;0.30;;;10.20;78.50;;;;;;4856154;29;20172;-75
2021/09/21 03:22:59;;;;;;;0.75;0.28;;;10.10;78.50;;;;;;4857937;29;20802;-75
2021/09/21 03:25:26;;;;;;;1.30;0.40;;;10.10;78.60;;;;;;4857740;29;20029;-75
2021/09/21 03:27:53;;;;;;;1.05;0.40;;;10.10;78.70;;;;;;4858323;29;20148;-75
2021/09/21 03:30:20;;;;;;;0.98;0.40;;;10.10;78.70;;;;;;4859190;29;20065;-75
2021/09/21 03:32:47;;;;;;;0.95;0.30;;;10.10;78.80;;;;;;4839547;29;20075;-75
2021/09/21 03:35:13;;;;;;;0.77;0.30;;;10.10;78.90;;;;;;4835160;29;20049;-74
2021/09/21 03:37:40;;;;;;;0.95;0.38;;;10.00;78.90;;;;;;4843699;29;20101;-75
2021/09/21 03:40:08;;;;;;;0.98;0.40;;;10.00;79.00;;;;;;4858404;29;20455;-75
2021/09/21 03:42:36;;;;;;;1.25;0.47;;;9.90;79.10;;;;;;4856013;29;20582;-75
2021/09/21 03:45:04;;;;;;;1.13;0.40;;;9.90;79.20;;;;;;4825520;29;20034;-75
2021/09/21 03:47:31;;;;;;;1.42;0.50;;;9.90;79.30;;;;;;4842039;29;20041;-75
2021/09/21 03:49:59;;;;;;;0.88;0.38;;;9.80;79.30;;;;;;4856029;29;20045;-74
2021/09/21 03:52:26;;;;;;;1.20;0.47;;;9.80;79.40;;;;;;4843874;29;20502;-74
2021/09/21 03:54:52;;;;;;;0.90;0.43;;;9.80;79.50;;;;;;4838394;29;20076;-75
2021/09/21 03:57:19;;;;;;;1.35;0.50;;;9.80;79.60;;;;;;4840693;29;20136;-74
2021/09/21 03:59:46;;;;;;;1.45;0.40;;;9.80;79.60;;;;;;4857101;29;20050;-75
2021/09/21 04:02:14;;;;;;;1.50;0.57;;;9.80;79.60;;;;;;4856659;29;20042;-74
2021/09/21 04:04:41;;;;;;;2.42;0.50;;;9.80;79.60;;;;;;4854566;29;20499;-74
2021/09/21 04:07:08;;;;;;;1.35;0.40;;;9.90;79.70;;;;;;4856389;29;20048;-75
2021/09/21 04:09:35;;;;;;;1.52;0.50;;;9.90;79.70;;;;;;4854188;29;20133;-74
2021/09/21 04:12:02;;;;;;;0.68;0.30;;;9.90;79.70;;;;;;4839184;29;20045;-74
2021/09/21 04:14:31;;;;;;;2.22;0.50;;;10.00;79.70;;;;;;4856983;29;20499;-74
2021/09/21 04:16:58;;;;;;;0.90;0.45;;;10.00;79.70;;;;;;4836615;29;20542;-75
2021/09/21 04:19:25;;;;;;;1.00;0.40;;;10.00;79.70;;;;;;4823734;29;20116;-74
2021/09/21 04:21:53;;;;;;;0.85;0.38;;;9.90;79.70;;;;;;4857311;29;20128;-75
2021/09/21 04:24:20;;;;;;;0.98;0.43;;;9.90;79.80;;;;;;4843014;29;20186;-75
2021/09/21 04:26:47;;;;;;;1.30;0.40;;;9.90;79.90;;;;;;4860958;29;20067;-75
2021/09/21 04:29:14;;;;;;;0.90;0.30;;;9.90;80.00;;;;;;4857204;29;20049;-74
2021/09/21 04:31:45;;;;;;;1.73;0.30;;;9.90;80.00;;;;;;4855862;29;20435;-74
2021/09/21 04:34:14;;;;;;;0.40;0.20;;;9.90;80.10;;;;;;4839836;29;20565;-74
2021/09/21 04:36:41;;;;;;;0.85;0.40;;;9.90;80.10;;;;;;4835912;29;20053;-74
2021/09/21 04:39:08;;;;;;;1.10;0.60;;;9.90;80.00;;;;;;4837654;29;20490;-74
2021/09/21 04:41:36;;;;;;;0.82;0.30;;;10.00;80.10;;;;;;4839931;29;20041;-75
2021/09/21 04:44:03;;;;;;;1.23;0.40;;;10.10;80.10;;;;;;4853720;29;20056;-74
2021/09/21 04:46:33;;;;;;;0.82;0.40;;;10.10;80.00;;;;;;4835953;29;20041;-74
2021/09/21 04:49:04;;;;;;;3.05;0.40;;;10.20;79.90;;;;;;4854108;29;20059;-74
2021/09/21 04:51:31;;;;;;;1.17;0.47;;;10.20;79.90;;;;;;4837217;29;20080;-74
2021/09/21 04:53:58;;;;;;;0.98;0.30;;;10.20;79.90;;;;;;4854953;29;20119;-75
2021/09/21 04:56:26;;;;;;;1.23;0.45;;;10.30;79.90;;;;;;4855256;29;20099;-74
2021/09/21 04:58:53;;;;;;;1.27;0.30;;;10.30;79.80;;;;;;4840474;29;20325;-74
2021/09/21 05:01:20;;;;;;;1.10;0.40;;;10.40;79.80;;;;;;4854305;29;20413;-74
2021/09/21 05:03:48;;;;;;;1.70;0.50;;;10.40;79.80;;;;;;4844337;29;20053;-75
2021/09/21 05:06:15;;;;;;;0.40;0.17;;;10.40;79.80;;;;;;4837056;29;20041;-74
2021/09/21 05:08:43;;;;;;;1.00;0.35;;;10.50;79.80;;;;;;4852775;29;20038;-75
2021/09/21 05:11:11;;;;;;;0.80;0.40;;;10.50;79.80;;;;;;4837621;29;21528;-74
2021/09/21 05:13:38;;;;;;;1.77;0.22;;;10.60;79.80;;;;;;4855264;29;20082;-75
2021/09/21 05:16:05;;;;;;;1.02;0.40;;;10.60;79.80;;;;;;4851903;29;20072;-74
2021/09/21 05:18:32;;;;;;;0.98;0.30;;;10.70;79.80;;;;;;4840612;29;20057;-76
2021/09/21 05:20:59;;;;;;;1.08;0.40;;;10.80;79.90;;;;;;4843438;29;20053;-76
2021/09/21 05:23:26;;;;;;;1.60;0.40;;;10.80;79.80;;;;;;4829405;29;20141;-77
2021/09/21 05:25:53;;;;;;;0.82;0.30;;;10.80;79.80;;;;;;4864894;29;20458;-77
2021/09/21 05:28:20;;;;;;;1.50;0.40;;;10.80;79.80;;;;;;4825271;29;20050;-75
2021/09/21 05:30:47;;;;;;;1.25;0.45;;;10.90;79.90;;;;;;4856357;29;20351;-74
2021/09/21 05:33:14;;;;;;;0.50;0.20;;;10.90;79.90;;;;;;4853474;29;20049;-75
2021/09/21 05:35:41;;;;;;;1.42;0.43;;;11.00;79.90;;;;;;4854665;29;20132;-75
2021/09/21 05:38:09;;;;;;;0.98;0.35;;;11.00;79.80;;;;;;4853693;29;20041;-74
2021/09/21 05:40:36;;;;;;;1.00;0.30;;;11.00;80.40;;;;;;4853454;29;20087;-74
2021/09/21 05:43:03;;;;;;;0.93;0.32;;;11.10;79.90;;;;;;4862038;29;20098;-78
2021/09/21 05:45:30;;;;;;;0.77;0.30;;;11.10;79.80;;;;;;4844623;29;20068;-77
2021/09/21 05:47:57;;;;;;;0.85;0.43;;;11.10;80.40;;;;;;4820582;29;20052;-77
2021/09/21 05:50:24;;;;;;;1.20;0.40;;;11.20;79.80;;;;;;4844039;29;20068;-77
2021/09/21 05:52:51;;;;;;;1.83;0.30;;;11.20;79.80;;;;;;4853600;29;20053;-77
2021/09/21 05:55:18;;;;;;;0.77;0.30;;;11.20;79.70;;;;;;4840013;29;20045;-77
2021/09/21 05:57:45;;;;;;;2.22;0.50;;;11.30;79.70;;;;;;4831942;29;20079;-78
2021/09/21 06:00:13;;;;;;;1.48;0.40;;;11.30;79.70;;;;;;4867477;29;20085;-78
2021/09/21 06:02:40;;;;;;;0.80;0.30;;;11.40;79.80;;;;;;4843194;29;20082;-74
2021/09/21 06:05:09;;;;;;;0.85;0.30;;;11.40;79.80;;;;;;4859854;29;20100;-75
2021/09/21 06:07:45;;;;;;;1.02;0.60;;;11.40;79.80;;;;;;4876769;29;20044;-75
2021/09/21 06:10:12;;;;;;;2.53;0.40;;;11.50;79.80;;;;;;4874622;29;20041;-75
2021/09/21 06:12:39;;;;;;;0.90;0.35;;;11.50;80.40;;;;;;4877523;29;20120;-75
2021/09/21 06:15:07;;;;;;;0.90;0.47;;;11.50;79.70;;;;;;4860876;29;20041;-75
2021/09/21 06:17:34;;;;;;;0.90;0.32;;;11.60;79.80;;;;;;4871755;29;20052;-75
2021/09/21 06:20:01;;;;;;;1.38;0.35;;;11.70;79.80;;;;;;4857817;29;20056;-75
2021/09/21 06:22:28;;;;;;;0.98;0.30;;;11.70;79.70;;;;;;4877158;29;20084;-75
2021/09/21 06:24:55;;;;;;;0.93;0.35;;;11.80;79.60;;;;;;4855460;29;20128;-75
2021/09/21 06:27:22;;;;;;;1.23;0.38;;;11.80;79.60;;;;;;4841320;29;20526;-75
2021/09/21 06:29:49;;;;;;;1.05;0.43;;;11.90;79.50;;;;;;4877135;29;20143;-75
2021/09/21 06:32:16;;;;;;;2.00;0.50;;;12.00;79.40;;;;;;4865739;29;20080;-75
2021/09/21 06:34:43;;;;;;;1.38;0.30;;;12.10;79.40;;;;;;4861301;29;20478;-75
2021/09/21 06:37:11;;;;;;;0.90;0.50;;;12.20;79.30;;;;;;4875583;29;20086;-75
2021/09/21 06:39:38;;;;;;;1.05;0.45;;;12.30;79.20;;;;;;4843473;29;20156;-75
2021/09/21 06:42:05;;;;;;;1.50;0.50;;;12.30;79.10;;;;;;4877543;29;20123;-75
2021/09/21 06:44:32;;;;;;;1.33;0.52;;;12.40;79.10;;;;;;4861488;29;20053;-75
2021/09/21 06:47:00;;;;;;;1.33;0.47;;;12.40;79.10;;;;;;4861634;29;20033;-75
2021/09/21 06:49:29;;;;;;;1.48;0.50;;;12.50;79.10;;;;;;4860015;29;20121;-75
2021/09/21 06:51:57;;;;;;;1.63;0.45;;;12.50;79.00;;;;;;4853014;29;20049;-75
2021/09/21 06:54:24;;;;;;;0.90;0.50;;;12.60;79.00;;;;;;4857021;29;20049;-75
2021/09/21 06:56:51;;;;;;;2.22;0.50;;;12.60;78.90;;;;;;4877544;29;20063;-75
2021/09/21 06:59:19;;;;;;;2.58;0.57;;;12.70;79.00;;;;;;4877441;29;20483;-75
2021/09/21 07:01:46;;;;;;;1.60;0.63;;;12.80;78.90;;;;;;4860275;29;20041;-75
2021/09/21 07:04:13;;;;;;;1.50;0.60;;;12.80;78.80;;;;;;4850253;29;20096;-75
2021/09/21 07:06:40;;;;;;;1.42;0.60;;;12.90;78.80;;;;;;4860778;29;20079;-75
2021/09/21 07:09:07;;;;;;;2.28;0.60;;;12.90;78.70;;;;;;4873482;29;20490;-75
2021/09/21 07:11:34;;;;;;;1.23;0.60;;;13.00;78.70;;;;;;4877245;29;20120;-75
2021/09/21 07:14:01;;;;;;;1.80;0.65;;;13.00;78.60;;;;;;4839911;29;20037;-75
2021/09/21 07:16:28;;;;;;;2.80;0.70;;;13.10;78.60;;;;;;4853232;29;20049;-75
2021/09/21 07:18:55;;;;;;;1.60;0.52;;;13.20;78.50;;;;;;4877580;29;20065;-75
2021/09/21 07:21:22;;;;;;;1.83;0.63;;;13.30;78.50;;;;;;4877757;29;20047;-75
2021/09/21 07:23:49;;;;;;;1.95;0.70;;;13.30;78.30;;;;;;4843944;29;20050;-75
2021/09/21 07:26:17;;;;;;;2.60;0.82;;;13.40;78.20;;;;;;4875346;29;20087;-75
2021/09/21 07:28:44;;;;;;;3.67;0.75;;;13.50;78.20;;;;;;4859515;29;20041;-75
2021/09/21 07:31:11;;;;;;;1.90;0.90;;;13.60;78.10;;;;;;4861165;29;20041;-75
2021/09/21 07:33:38;;;;;;;2.08;0.70;;;13.70;78.00;;;;;;4843175;29;20045;-75
2021/09/21 07:36:05;;;;;;;1.83;0.80;;;13.70;77.80;;;;;;4870637;29;20048;-75
2021/09/21 07:38:32;;;;;;;2.42;0.80;;;13.80;77.90;;;;;;4877372;29;20053;-75
2021/09/21 07:40:59;;;;;;;2.35;0.88;;;13.80;78.50;;;;;;4871722;29;20049;-75
2021/09/21 07:43:27;;;;;;;2.97;1.00;;;13.80;77.90;;;;;;4870798;29;20056;-75
2021/09/21 07:45:54;;;;;;;2.83;1.10;;;13.80;78.30;;;;;;4877746;29;20132;-75
2021/09/21 07:48:21;;;;;;;2.42;0.90;;;13.80;78.20;;;;;;4879704;29;20057;-75
2021/09/21 07:50:51;;;;;;;2.17;0.75;;;13.80;78.80;;;;;;4879399;29;20048;-75
2021/09/21 07:53:19;;;;;;;1.83;0.60;;;13.80;78.20;;;;;;4881000;29;20528;-75
2021/09/21 07:55:46;;;;;;;1.85;0.73;;;13.80;78.40;;;;;;4880713;29;20133;-75
2021/09/21 07:58:13;;;;;;;1.67;0.82;;;13.80;78.10;;;;;;4879074;29;20049;-75
2021/09/21 08:00:40;;;;;;;3.85;0.95;;;13.90;78.10;;;;;;4863356;29;20120;-75
2021/09/21 08:03:07;;;;;;;3.90;1.48;;;13.90;78.00;;;;;;4879454;29;20076;-75
2021/09/21 08:05:35;;;;;;;4.63;1.05;;;14.00;77.90;;;;;;4859730;29;20124;-75
2021/09/21 08:08:02;;;;;;;2.60;0.98;;;14.10;77.70;;;;;;4864493;29;20410;-75
2021/09/21 08:10:33;;;;;;;3.78;1.27;;;14.20;77.60;;;;;;4878124;29;20053;-75
2021/09/21 08:13:00;;;;;;;2.70;0.77;;;14.30;77.50;;;;;;4867260;29;20068;-75
2021/09/21 08:15:30;;;;;;;3.50;0.90;;;14.40;77.40;;;;;;4863719;29;20105;-75
2021/09/21 08:18:01;;;;;;;2.65;1.05;;;14.40;77.20;;;;;;4848270;29;20057;-75
2021/09/21 08:20:28;;;;;;;1.52;0.60;;;14.50;77.00;;;;;;4878276;29;20053;-75
2021/09/21 08:22:56;;;;;;;3.33;0.73;;;14.60;77.00;;;;;;4853980;29;20387;-76
2021/09/21 08:25:23;;;;;;;3.10;1.50;;;14.70;76.80;;;;;;4859181;29;20049;-75
2021/09/21 08:27:50;;;;;;;3.45;1.52;;;14.70;76.50;;;;;;4877648;29;20528;-77
2021/09/21 08:30:28;;;;;;;3.13;1.17;;;14.90;76.30;;;;;;4876907;29;20041;-82
2021/09/21 08:32:56;;;;;;;2.70;1.38;;;14.90;76.10;;;;;;4862348;29;20454;-81
2021/09/21 08:35:23;;;;;;;2.80;1.20;;;15.00;75.90;;;;;;4861905;29;20177;-80
2021/09/21 08:37:50;;;;;;;2.53;0.93;;;15.00;75.80;;;;;;4877704;29;20574;-81
2021/09/21 08:40:17;;;;;;;2.67;0.93;;;15.10;75.60;;;;;;4842805;29;20057;-81
2021/09/21 08:42:44;;;;;;;2.65;1.17;;;15.10;75.40;;;;;;4861814;29;20059;-80
2021/09/21 08:45:12;;;;;;;2.28;0.90;;;15.10;75.20;;;;;;4874953;29;20081;-82
2021/09/21 08:47:40;;;;;;;2.08;0.82;;;15.20;75.20;;;;;;4861177;29;20053;-81
2021/09/21 08:50:14;;;;;;;2.45;1.10;;;15.20;75.20;;;;;;4862103;29;20381;-82
2021/09/21 08:52:47;;;;;;;1.73;0.60;;;15.30;75.00;;;;;;4875707;29;20232;-81
2021/09/21 08:55:14;;;;;;;2.05;0.70;;;15.30;74.90;;;;;;4848114;29;20093;-81
2021/09/21 08:57:42;;;;;;;2.67;0.95;;;15.40;74.80;;;;;;4879237;29;20139;-81
2021/09/21 09:00:26;;;;;;;3.10;1.08;;;15.50;74.40;;;;;;4865989;29;20063;-81
2021/09/21 09:03:10;;;;;;;2.05;0.70;;;15.60;74.00;;;;;;4877736;29;20045;-81
2021/09/21 09:05:44;;;;;;;2.28;0.90;;;15.60;73.90;;;;;;4875761;29;20053;-82
2021/09/21 09:08:33;;;;;;;2.65;0.95;;;15.70;73.80;;;;;;4873289;29;20116;-80
2021/09/21 09:11:29;;;;;;;2.13;0.80;;;15.80;73.50;;;;;;4863601;29;20041;-80
2021/09/21 09:13:58;;;;;;;3.13;1.17;;;16.00;73.40;;;;;;4839138;29;20415;-82
2021/09/21 09:16:31;;;;;;;2.22;1.10;;;16.00;72.80;;;;;;4843519;29;20097;-83
2021/09/21 09:19:02;;;;;;;2.22;0.57;;;16.10;72.60;;;;;;4868786;29;20081;-81
2021/09/21 09:21:33;;;;;;;2.40;0.70;;;16.10;72.60;;;;;;4853814;29;20053;-83
2021/09/21 09:24:01;;;;;;;1.63;0.60;;;16.10;72.60;;;;;;4851176;29;20092;-79
2021/09/21 09:26:31;;;;;;;1.40;0.60;;;16.10;72.40;;;;;;4875968;29;20053;-82
2021/09/21 09:28:58;;;;;;;0.88;0.40;;;16.20;72.30;;;;;;4863381;29;20045;-81
2021/09/21 09:31:32;;;;;;;0.88;0.30;;;16.20;72.20;;;;;;4847936;29;20043;-80
2021/09/21 09:34:11;;;;;;;1.67;0.80;;;16.30;72.00;;;;;;4847782;29;20101;-80
2021/09/21 09:36:47;;;;;;;1.25;0.57;;;16.30;71.80;;;;;;4878447;29;20065;-80
2021/09/21 09:39:15;;;;;;;1.23;0.40;;;16.40;71.40;;;;;;4848251;29;20127;-77
2021/09/21 09:41:44;;;;;;;1.38;0.55;;;16.40;71.30;;;;;;4860298;29;20076;-76
2021/09/21 09:44:17;;;;;;;1.52;0.52;;;16.50;71.30;;;;;;4878480;29;20546;-81
2021/09/21 09:46:56;;;;;;;2.42;0.85;;;16.50;71.10;;;;;;4862739;29;20530;-82
2021/09/21 09:49:35;;;;;;;1.25;0.52;;;16.60;70.20;;;;;;4878904;29;20113;-80
2021/09/21 09:52:07;;;;;;;1.25;0.63;;;16.60;70.30;;;;;;4879342;29;20045;-80
2021/09/21 09:54:36;;;;;;;3.00;0.77;;;16.60;70.20;;;;;;4877950;29;20056;-81
2021/09/21 09:57:08;;;;;;;1.77;0.60;;;16.60;69.30;;;;;;4878505;29;20076;-82
2021/09/21 09:59:37;;;;;;;1.60;0.73;;;16.60;69.40;;;;;;4868081;29;20049;-80
2021/09/21 10:02:05;;;;;;;1.73;0.60;;;16.70;69.20;;;;;;4879547;29;20045;-80
2021/09/21 10:04:32;;;;;;;1.85;0.60;;;16.70;69.10;;;;;;4861644;29;20072;-80
2021/09/21 10:07:00;;;;;;;2.28;0.50;;;16.70;68.90;;;;;;4860606;29;20392;-80
2021/09/21 10:09:27;;;;;;;2.63;0.63;;;16.80;68.70;;;;;;4842325;29;20045;-80
2021/09/21 10:11:57;;;;;;;1.63;0.70;;;16.80;68.60;;;;;;4862223;29;20498;-80
2021/09/21 10:14:25;;;;;;;1.05;0.50;;;16.90;68.50;;;;;;4855241;29;20056;-80
2021/09/21 10:17:04;;;;;;;1.50;0.57;;;16.90;68.20;;;;;;4847470;29;20045;-80
2021/09/21 10:19:34;;;;;;;1.45;0.50;;;16.90;67.70;;;;;;4862440;29;20072;-80
2021/09/21 10:22:03;;;;;;;0.98;0.50;;;16.90;67.50;;;;;;4861904;29;20081;-80
2021/09/21 10:24:33;;;;;;;1.23;0.50;;;16.90;67.30;;;;;;4862291;29;20057;-80
2021/09/21 10:27:03;;;;;;;1.88;0.70;;;17.00;67.30;;;;;;4850845;29;20056;-80
2021/09/21 10:29:30;;;;;;;2.25;0.60;;;17.00;66.80;;;;;;4879118;29;20041;-80
2021/09/21 10:32:08;;;;;;;3.53;0.90;;;16.90;66.20;;;;;;4877631;29;20041;-79
2021/09/21 10:34:48;;;;;;;1.85;0.70;;;17.00;65.90;;;;;;4871198;29;20520;-81
2021/09/21 10:37:22;;;;;;;1.63;0.68;;;16.90;65.60;;;;;;4860920;29;20052;-77
2021/09/21 10:40:05;;;;;;;1.42;0.60;;;16.90;65.60;;;;;;4857969;29;20438;-76
2021/09/21 10:42:32;;;;;;;2.13;0.60;;;17.00;65.50;;;;;;4862299;29;20053;-76
2021/09/21 10:45:02;;;;;;;1.88;0.73;;;16.90;64.80;;;;;;4871676;29;20047;-77
2021/09/21 10:47:38;;;;;;;1.23;0.57;;;16.90;64.90;;;;;;4874460;29;20049;-78
2021/09/21 10:50:13;;;;;;;0.98;0.50;;;16.90;65.00;;;;;;4860563;29;20414;-78
2021/09/21 10:52:40;;;;;;;1.70;0.70;;;16.90;64.80;;;;;;4871269;29;20058;-77
2021/09/21 10:55:11;;;;;;;1.48;0.60;;;17.00;64.80;;;;;;4859172;29;20052;-77
2021/09/21 10:57:41;;;;;;;2.35;0.70;;;17.00;64.70;;;;;;4873333;29;20388;-77
2021/09/21 11:00:13;;;;;;;1.67;0.60;;;17.00;64.70;;;;;;4859159;29;20461;-77
2021/09/21 11:02:52;;;;;;;2.08;0.68;;;17.00;64.60;;;;;;4860103;29;20082;-77
2021/09/21 11:05:26;;;;;;;1.45;0.60;;;17.10;65.00;;;;;;4839545;29;20509;-77
2021/09/21 11:07:58;;;;;;;1.10;0.52;;;17.10;64.30;;;;;;4823067;29;20052;-77
2021/09/21 11:10:28;;;;;;;2.85;0.85;;;17.20;64.30;;;;;;4859058;29;20087;-77
2021/09/21 11:12:56;;;;;;;1.27;0.50;;;17.20;63.70;;;;;;4859337;29;20086;-77
2021/09/21 11:15:26;;;;;;;2.50;0.60;;;17.30;63.60;;;;;;4850973;29;20132;-76
2021/09/21 11:18:12;;;;;;;2.08;0.70;;;17.30;63.20;;;;;;4862871;29;20541;-77
2021/09/21 11:20:50;;;;;;;5.70;1.23;;;17.40;62.90;;;;;;4858524;29;20060;-77
2021/09/21 11:23:19;;;;;;;2.47;0.80;;;17.40;62.70;;;;;;4855227;29;20125;-78
2021/09/21 11:25:47;;;;;;;2.30;0.65;;;17.50;62.80;;;;;;4858073;29;20065;-77
2021/09/21 11:28:15;;;;;;;2.35;0.65;;;17.50;62.70;;;;;;4862966;29;20124;-77
2021/09/21 11:30:44;;;;;;;1.92;0.98;;;17.60;62.30;;;;;;4861414;29;20173;-76
2021/09/21 11:33:19;;;;;;;1.40;0.63;;;17.60;62.30;;;;;;4859750;29;20034;-76
2021/09/21 11:35:49;;;;;;;1.63;0.75;;;17.60;61.90;;;;;;4861590;29;20101;-77
2021/09/21 11:38:17;;;;;;;1.90;0.80;;;17.70;62.10;;;;;;4862913;29;20124;-78
2021/09/21 11:40:46;;;;;;;1.98;0.60;;;17.70;61.90;;;;;;4850644;29;20049;-76
2021/09/21 11:43:14;;;;;;;2.53;0.80;;;17.80;61.80;;;;;;4839869;29;20052;-77
2021/09/21 11:45:44;;;;;;;1.45;0.68;;;17.90;61.60;;;;;;4847251;29;20366;-77
2021/09/21 11:48:14;;;;;;;1.50;0.70;;;18.00;61.60;;;;;;4866432;29;20064;-77
2021/09/21 11:50:42;;;;;;;1.55;0.68;;;18.10;61.40;;;;;;4864557;29;20094;-77
2021/09/21 11:53:12;;;;;;;1.42;0.80;;;18.10;61.40;;;;;;4847791;29;20042;-76
2021/09/21 11:55:59;;;;;;;2.15;0.70;;;18.20;61.00;;;;;;4845903;29;20053;-76
2021/09/21 11:58:31;;;;;;;2.00;0.80;;;18.20;60.70;;;;;;4863663;29;20038;-78
2021/09/21 12:01:05;;;;;;;2.15;0.88;;;18.20;60.40;;;;;;4829100;29;20685;-77
2021/09/21 12:03:34;;;;;;;1.95;0.70;;;18.30;60.10;;;;;;4848752;29;20357;-77
2021/09/21 12:06:04;;;;;;;1.50;0.60;;;18.30;60.20;;;;;;4845350;29;20093;-77
2021/09/21 12:08:35;;;;;;;2.53;0.77;;;18.40;60.10;;;;;;4860259;29;20049;-77
2021/09/21 12:11:06;;;;;;;1.85;0.73;;;18.50;60.10;;;;;;4856153;29;20045;-78
2021/09/21 12:13:34;;;;;;;2.00;0.80;;;18.60;59.80;;;;;;4860464;29;20041;-77
2021/09/21 12:16:04;;;;;;;3.17;0.93;;;18.70;59.60;;;;;;4839863;29;20478;-78
2021/09/21 12:18:34;;;;;;;2.08;0.80;;;18.70;59.50;;;;;;4859942;29;20046;-78
2021/09/21 12:21:03;;;;;;;2.92;1.02;;;18.90;59.60;;;;;;4815256;29;20153;-78
2021/09/21 12:23:33;;;;;;;2.15;0.98;;;18.90;58.70;;;;;;4860654;29;20068;-78
2021/09/21 12:26:02;;;;;;;3.35;0.75;;;19.00;58.70;;;;;;4855903;29;21465;-78
2021/09/21 12:28:40;;;;;;;1.63;0.70;;;19.00;58.80;;;;;;4861115;29;20061;-78
2021/09/21 12:31:13;;;;;;;1.50;0.60;;;19.20;58.70;;;;;;4857867;29;20124;-77
2021/09/21 12:33:42;;;;;;;2.13;0.93;;;19.20;58.30;;;;;;4858116;29;20065;-77
2021/09/21 12:36:52;;;;;;;1.58;0.55;;;19.20;58.20;;;;;;4846735;29;20125;-78
2021/09/21 12:39:23;;;;;;;1.55;0.60;;;19.30;58.40;;;;;;4852877;29;20077;-77
2021/09/21 12:41:52;;;;;;;1.05;0.47;;;19.30;58.60;;;;;;4843166;29;20486;-77
2021/09/21 12:44:22;;;;;;;2.40;0.60;;;19.40;58.60;;;;;;4838252;29;20502;-78
2021/09/21 12:46:53;;;;;;;0.82;0.40;;;19.40;58.30;;;;;;4854027;29;20826;-80
2021/09/21 12:49:22;;;;;;;1.58;0.45;;;19.50;58.30;;;;;;4860765;29;20394;-78
2021/09/21 12:51:54;;;;;;;1.88;0.60;;;19.50;58.30;;;;;;4863107;29;20045;-78
2021/09/21 12:54:24;;;;;;;2.05;0.80;;;19.50;58.30;;;;;;4827257;29;20046;-77
2021/09/21 12:56:55;;;;;;;2.60;1.05;;;19.50;58.10;;;;;;4862397;29;20068;-77
2021/09/21 12:59:23;;;;;;;2.47;0.90;;;19.40;57.60;;;;;;4837529;29;20086;-77
2021/09/21 13:01:53;;;;;;;2.00;1.10;;;19.30;57.80;;;;;;4857072;29;20444;-77
2021/09/21 13:04:38;;;;;;;1.45;0.60;;;19.30;57.90;;;;;;4841578;29;20077;-77
2021/09/21 13:07:05;;;;;;;2.08;0.80;;;19.40;58.00;;;;;;4811971;29;20050;-77
2021/09/21 13:09:33;;;;;;;1.65;0.70;;;19.40;57.80;;;;;;4858088;29;20132;-80
2021/09/21 13:12:00;;;;;;;1.58;0.70;;;19.40;58.00;;;;;;4844471;29;20125;-80
2021/09/21 13:14:27;;;;;;;1.30;0.60;;;19.40;57.90;;;;;;4842475;29;20042;-81
2021/09/21 13:16:54;;;;;;;1.92;0.73;;;19.50;58.50;;;;;;4843323;29;20037;-80